Time;durP1;ratioP1;P1;durP2;ratioP2;P2;SDS_P1;SDS_P2;PMS_P1;PMS_P2;Temp;Humidity;BMP_temperature;BMP_pressure;BME280_temperature;BME280_humidity;BME280_pressure;Samples;Min_cycle;Max_cycle;Signal;HPM_P1;HPM_P2
2022/06/21 00:00:59;;;;;;;7.90;3.00;;;;;;;20.41;44.98;99418.78;4143965;28;21090;-69
2022/06/21 00:03:06;;;;;;;4.70;2.87;;;;;;;20.20;45.27;99415.53;4143936;28;20970;-70
2022/06/21 00:05:20;;;;;;;4.97;2.93;;;;;;;19.76;45.99;99404.13;4143395;28;20773;-69
2022/06/21 00:07:24;;;;;;;6.97;3.53;;;;;;;19.92;45.71;99397.25;4144631;28;20581;-69
2022/06/21 00:09:26;;;;;;;6.03;3.23;;;;;;;19.43;46.66;99399.13;4144937;28;20233;-68
2022/06/21 00:11:31;;;;;;;5.77;3.50;;;;;;;20.16;45.61;99390.06;4144585;28;20229;-68
2022/06/21 00:13:34;;;;;;;4.30;3.20;;;;;;;19.68;45.66;99399.06;4144166;28;20308;-68
2022/06/21 00:15:36;;;;;;;5.67;3.30;;;;;;;20.34;45.23;99377.56;4143451;28;20242;-69
2022/06/21 00:17:40;;;;;;;5.83;3.20;;;;;;;20.06;45.93;99387.09;4144559;28;20241;-69
2022/06/21 00:19:43;;;;;;;6.27;3.47;;;;;;;20.40;44.93;99392.84;4160973;28;20249;-68
2022/06/21 00:21:46;;;;;;;4.53;2.87;;;;;;;19.70;46.27;99378.06;4144096;28;20294;-68
2022/06/21 00:23:50;;;;;;;6.60;3.33;;;;;;;19.48;46.32;99391.19;4145723;28;20241;-68
2022/06/21 00:25:52;;;;;;;4.47;2.90;;;;;;;19.86;45.94;99382.81;4158720;28;20615;-68
2022/06/21 00:27:55;;;;;;;6.43;3.10;;;;;;;19.57;46.82;99379.09;4142734;28;20284;-69
2022/06/21 00:29:57;;;;;;;3.63;2.97;;;;;;;20.20;45.27;99366.94;4145417;28;20237;-68
2022/06/21 00:31:58;;;;;;;4.63;2.80;;;;;;;18.86;47.09;99397.44;4144159;28;20263;-69
2022/06/21 00:34:11;;;;;;;5.00;2.97;;;;;;;19.35;46.68;99383.25;4154548;28;20240;-68
2022/06/21 00:36:26;;;;;;;5.73;3.17;;;;;;;18.92;47.09;99382.28;4159786;28;20283;-68
2022/06/21 00:38:33;;;;;;;3.97;2.53;;;;;;;19.80;45.98;99364.84;4145840;28;20295;-68
2022/06/21 00:40:35;;;;;;;5.30;3.30;;;;;;;19.50;46.52;99375.59;4137616;28;20302;-70
2022/06/21 00:42:38;;;;;;;2.90;2.70;;;;;;;19.86;45.51;99372.03;4145908;28;20778;-69
2022/06/21 00:44:44;;;;;;;5.83;2.93;;;;;;;19.17;46.79;99370.59;4137616;28;20319;-69
2022/06/21 00:46:47;;;;;;;4.80;2.80;;;;;;;19.19;46.51;99390.09;4146370;28;20261;-68
2022/06/21 00:48:51;;;;;;;4.53;3.07;;;;;;;19.75;46.03;99372.81;4143368;28;20353;-68
2022/06/21 00:51:11;;;;;;;8.00;3.20;;;;;;;20.16;45.13;99376.59;4147860;28;20245;-69
2022/06/21 00:53:24;;;;;;;3.70;2.70;;;;;;;19.59;46.10;99400.41;4160214;28;20252;-69
2022/06/21 00:55:47;;;;;;;6.00;3.00;;;;;;;19.93;45.36;99393.53;4160178;28;20239;-68
2022/06/21 00:57:55;;;;;;;4.90;2.70;;;;;;;20.09;45.10;99404.72;4147491;28;20753;-69
2022/06/21 01:00:36;;;;;;;5.57;2.80;;;;;;;20.34;44.98;99385.66;4155003;28;20281;-68
2022/06/21 01:02:38;;;;;;;4.17;3.00;;;;;;;19.40;46.66;99395.00;4129739;28;20237;-68
2022/06/21 01:04:45;;;;;;;6.17;2.90;;;;;;;19.41;46.89;99388.56;4158159;28;20244;-68
2022/06/21 01:06:51;;;;;;;3.17;2.87;;;;;;;18.53;48.52;99378.91;4153476;28;20249;-68
2022/06/21 01:09:00;;;;;;;3.93;2.90;;;;;;;18.18;48.88;99365.91;4144273;28;20658;-67
2022/06/21 01:11:09;;;;;;;6.10;2.50;;;;;;;19.45;46.79;99343.09;4143505;28;20779;-68
2022/06/21 01:13:15;;;;;;;5.00;3.30;;;;;;;18.56;48.03;99359.59;4142759;28;20245;-68
2022/06/21 01:15:21;;;;;;;3.03;2.80;;;;;;;19.55;46.49;99338.00;4143081;28;20233;-68
2022/06/21 01:17:23;;;;;;;7.57;3.17;;;;;;;18.67;48.05;99344.59;4142588;28;20291;-68
2022/06/21 01:19:25;;;;;;;3.63;3.07;;;;;;;18.14;49.12;99344.00;4143209;28;20230;-68
2022/06/21 01:21:29;;;;;;;4.17;2.70;;;;;;;18.64;47.98;99340.44;4144330;28;20233;-68
2022/06/21 01:23:31;;;;;;;4.30;2.70;;;;;;;18.78;48.05;99325.00;4142559;28;20946;-68
2022/06/21 01:26:13;;;;;;;4.10;2.77;;;;;;;19.18;47.59;99299.50;4142890;28;21026;-68
2022/06/21 01:28:15;;;;;;;3.33;2.80;;;;;;;18.86;48.28;99321.22;4143483;28;20768;-68
2022/06/21 01:30:17;;;;;;;3.10;2.80;;;;;;;18.80;47.91;99335.56;4142609;28;20805;-67
2022/06/21 01:32:19;;;;;;;3.60;3.20;;;;;;;19.56;46.73;99317.28;4143084;28;20280;-68
2022/06/21 01:34:24;;;;;;;3.47;2.70;;;;;;;19.33;47.34;99321.47;4143738;28;20916;-68
2022/06/21 01:36:35;;;;;;;5.23;2.87;;;;;;;19.51;46.85;99307.97;4142430;28;20225;-68
2022/06/21 01:38:57;;;;;;;3.10;2.40;;;;;;;19.08;47.18;99337.75;4158426;28;20251;-68
2022/06/21 01:41:07;;;;;;;5.10;2.90;;;;;;;19.80;46.67;99321.69;4138885;28;20282;-68
2022/06/21 01:43:15;;;;;;;4.13;3.00;;;;;;;19.51;46.73;99323.31;4142546;28;20350;-68
2022/06/21 01:45:21;;;;;;;2.53;2.33;;;;;;;19.61;46.43;99337.09;4142013;28;20709;-68
2022/06/21 01:47:28;;;;;;;4.00;2.47;;;;;;;18.85;47.99;99338.44;4141665;28;20989;-68
2022/06/21 01:49:33;;;;;;;4.13;2.40;;;;;;;19.17;47.17;99330.16;4149914;28;20806;-68
2022/06/21 01:51:40;;;;;;;3.87;2.53;;;;;;;19.64;46.62;99316.94;4151704;28;20228;-69
2022/06/21 01:53:43;;;;;;;3.20;2.50;;;;;;;19.04;47.61;99323.09;4159863;28;20294;-68
2022/06/21 01:55:49;;;;;;;4.53;2.63;;;;;;;18.77;48.19;99350.28;4157348;28;20299;-68
2022/06/21 01:57:51;;;;;;;3.53;2.70;;;;;;;18.31;48.63;99348.84;4155371;28;20263;-69
2022/06/21 01:59:53;;;;;;;5.23;2.80;;;;;;;18.06;49.75;99327.28;4152527;28;20258;-68
2022/06/21 02:02:10;;;;;;;8.17;2.60;;;;;;;18.64;48.69;99310.03;4150156;28;20294;-69
2022/06/21 02:04:20;;;;;;;3.07;2.50;;;;;;;18.64;48.22;99332.38;4157687;28;20303;-68
2022/06/21 02:06:24;;;;;;;4.37;2.93;;;;;;;19.00;47.49;99317.34;4155073;28;20750;-68
2022/06/21 02:08:36;;;;;;;3.70;2.67;;;;;;;18.42;48.31;99334.66;4143110;28;20229;-69
2022/06/21 02:10:43;;;;;;;2.80;2.33;;;;;;;18.68;48.25;99314.75;4143014;28;20241;-68
2022/06/21 02:12:51;;;;;;;3.03;2.63;;;;;;;19.48;46.89;99300.31;4135320;28;20590;-67
2022/06/21 02:14:56;;;;;;;7.00;2.70;;;;;;;18.98;47.87;99316.72;4142318;28;20780;-67
2022/06/21 02:17:04;;;;;;;3.70;2.57;;;;;;;18.70;48.03;99339.56;4143237;28;21106;-68
2022/06/21 02:19:14;;;;;;;3.23;2.50;;;;;;;19.49;47.00;99299.28;4142545;28;20367;-67
2022/06/21 02:21:34;;;;;;;4.47;2.43;;;;;;;18.21;48.58;99343.97;4143103;28;20237;-70
2022/06/21 02:23:37;;;;;;;3.47;2.60;;;;;;;17.76;49.43;99339.47;4142611;28;20229;-70
2022/06/21 02:25:41;;;;;;;2.90;2.40;;;;;;;18.62;48.29;99309.44;4141522;28;20240;-67
2022/06/21 02:27:44;;;;;;;3.90;2.90;;;;;;;19.26;47.31;99291.09;4136324;28;20237;-68
2022/06/21 02:29:52;;;;;;;2.97;2.67;;;;;;;19.03;48.15;99287.25;4142937;28;20662;-68
2022/06/21 02:31:54;;;;;;;2.37;2.17;;;;;;;19.19;47.32;99303.84;4142504;28;20267;-67
2022/06/21 02:34:01;;;;;;;4.27;2.60;;;;;;;18.99;48.10;99312.97;4141627;28;20300;-67
2022/06/21 02:36:06;;;;;;;3.30;2.63;;;;;;;19.05;47.88;99319.31;4141839;28;20378;-67
2022/06/21 02:38:17;;;;;;;2.70;2.50;;;;;;;18.84;48.38;99313.34;4142306;28;20835;-67
2022/06/21 02:40:27;;;;;;;3.80;2.60;;;;;;;18.35;48.91;99334.72;4142381;28;20326;-70
2022/06/21 02:42:32;;;;;;;3.67;2.30;;;;;;;18.88;48.15;99313.72;4142136;28;20760;-66
2022/06/21 02:44:45;;;;;;;3.53;2.70;;;;;;;18.48;48.65;99317.63;4141432;28;20271;-69
2022/06/21 02:46:51;;;;;;;4.17;2.67;;;;;;;18.75;48.15;99285.88;4142572;28;20857;-69
2022/06/21 02:49:13;;;;;;;3.10;2.57;;;;;;;17.74;50.48;99308.47;4144069;28;20248;-69
2022/06/21 02:51:24;;;;;;;4.23;2.77;;;;;;;18.78;48.79;99269.25;4149451;28;20278;-70
2022/06/21 02:53:35;;;;;;;3.37;2.67;;;;;;;18.36;48.87;99298.69;4159712;28;20271;-67
2022/06/21 02:55:50;;;;;;;3.30;2.90;;;;;;;19.72;47.09;99257.28;4157866;28;20243;-67
2022/06/21 02:58:16;;;;;;;3.00;2.70;;;;;;;19.34;47.52;99280.00;4136899;28;20271;-67
2022/06/21 03:00:19;;;;;;;3.90;2.40;;;;;;;18.36;49.11;99311.34;4141256;28;20225;-70
2022/06/21 03:02:24;;;;;;;3.37;2.70;;;;;;;18.04;49.42;99319.44;4142326;28;20231;-69
2022/06/21 03:04:42;;;;;;;4.13;2.40;;;;;;;18.26;48.97;99309.13;4141391;28;20914;-69
2022/06/21 03:06:45;;;;;;;3.97;2.57;;;;;;;18.22;49.84;99278.31;4134358;28;20307;-67
2022/06/21 03:08:52;;;;;;;3.33;2.90;;;;;;;17.98;49.88;99296.91;4142225;28;20291;-67
2022/06/21 03:10:54;;;;;;;5.33;2.60;;;;;;;18.07;49.77;99288.59;4141851;28;20245;-69
2022/06/21 03:13:06;;;;;;;5.03;2.70;;;;;;;18.21;49.81;99279.38;4141485;28;20287;-67
2022/06/21 03:15:11;;;;;;;3.07;2.77;;;;;;;17.59;50.20;99311.44;4141303;28;20643;-69
2022/06/21 03:17:16;;;;;;;5.03;2.63;;;;;;;17.74;50.36;99292.34;4141663;28;20233;-69
2022/06/21 03:19:29;;;;;;;3.20;2.80;;;;;;;18.68;48.40;99268.97;4141225;28;20246;-70
2022/06/21 03:21:33;;;;;;;4.10;3.00;;;;;;;18.72;48.42;99272.84;4143299;28;20303;-69
2022/06/21 03:23:35;;;;;;;4.13;2.60;;;;;;;18.28;49.30;99273.94;4140742;28;20237;-69
2022/06/21 03:26:00;;;;;;;4.03;2.90;;;;;;;17.28;51.15;99289.69;4156790;28;20233;-69
2022/06/21 03:28:02;;;;;;;4.33;2.80;;;;;;;17.94;50.01;99249.16;4145255;28;20722;-69
2022/06/21 03:30:05;;;;;;;3.93;2.50;;;;;;;18.38;49.72;99225.81;4142430;28;20245;-69
2022/06/21 03:32:07;;;;;;;2.77;2.60;;;;;;;17.56;50.91;99239.31;4142391;28;20256;-67
2022/06/21 03:34:16;;;;;;;3.47;2.70;;;;;;;17.64;50.29;99252.47;4142238;28;20237;-83
2022/06/21 03:36:22;;;;;;;3.17;2.80;;;;;;;18.46;48.76;99224.66;4140322;28;20228;-74
2022/06/21 03:38:24;;;;;;;3.30;3.00;;;;;;;18.02;49.94;99238.13;4142095;28;20221;-69
2022/06/21 03:42:53;;;;;;;2.67;2.47;;;;;;;17.24;51.12;99258.88;4137229;28;20244;-70
2022/06/21 03:45:03;;;;;;;3.70;2.90;;;;;;;18.49;49.16;99219.69;4140338;28;20291;-69
2022/06/21 03:47:14;;;;;;;2.83;2.50;;;;;;;18.43;49.09;99217.06;4140837;28;20643;-66
2022/06/21 03:49:42;;;;;;;4.90;3.40;;;;;;;18.68;48.61;99214.28;4141342;28;20229;-69
2022/06/21 03:51:47;;;;;;;3.27;2.40;;;;;;;17.75;50.45;99248.25;4148321;28;20243;-70
2022/06/21 03:53:52;;;;;;;2.70;2.50;;;;;;;18.29;49.60;99232.50;4157562;28;20290;-70
2022/06/21 03:56:03;;;;;;;4.60;2.43;;;;;;;17.72;50.99;99230.72;4145498;28;20291;-69
2022/06/21 03:58:08;;;;;;;3.33;2.70;;;;;;;18.08;50.40;99210.34;4141447;28;20952;-70
2022/06/21 04:00:13;;;;;;;4.50;2.53;;;;;;;17.58;50.90;99221.94;4141409;28;20266;-69
2022/06/21 04:02:27;;;;;;;4.17;2.87;;;;;;;17.50;51.35;99230.25;4142499;28;20632;-67
2022/06/21 04:04:32;;;;;;;5.23;2.40;;;;;;;17.76;50.44;99228.41;4141306;28;20229;-70
2022/06/21 04:06:49;;;;;;;3.87;3.00;;;;;;;16.93;52.60;99225.56;4141131;28;20229;-67
2022/06/21 04:09:09;;;;;;;3.73;2.50;;;;;;;17.90;50.60;99192.28;4136109;28;20887;-69
2022/06/21 04:11:21;;;;;;;2.80;2.10;;;;;;;18.75;48.87;99167.38;4144944;28;20479;-68
2022/06/21 04:13:29;;;;;;;2.70;2.50;;;;;;;18.81;48.72;99170.19;4144372;28;20241;-69
2022/06/21 04:15:49;;;;;;;2.67;2.47;;;;;;;17.94;49.90;99235.72;4144230;28;20836;-70
2022/06/21 04:18:07;;;;;;;2.73;2.40;;;;;;;17.59;51.02;99225.44;4144727;28;20237;-70
2022/06/21 04:20:34;;;;;;;2.83;2.60;;;;;;;17.00;51.68;99262.31;4145637;28;20233;-67
2022/06/21 04:22:46;;;;;;;3.10;2.37;;;;;;;18.26;49.85;99201.50;4143254;28;20248;-69
2022/06/21 04:25:02;;;;;;;3.33;2.60;;;;;;;17.50;51.01;99235.63;4136172;28;20325;-70
2022/06/21 04:27:13;;;;;;;2.37;2.03;;;;;;;17.36;51.24;99236.75;4145548;28;20245;-69
2022/06/21 04:29:22;;;;;;;2.43;2.33;;;;;;;16.97;52.42;99231.31;4152455;28;20287;-69
2022/06/21 04:31:57;;;;;;;3.47;2.20;;;;;;;18.11;50.06;99184.91;4144496;28;20291;-69
2022/06/21 04:34:14;;;;;;;4.03;2.60;;;;;;;17.79;50.93;99201.09;4144789;28;20237;-69
2022/06/21 04:36:21;;;;;;;3.07;2.63;;;;;;;18.29;49.82;99197.53;4148426;28;20233;-69
2022/06/21 04:38:29;;;;;;;3.60;2.13;;;;;;;18.13;50.28;99190.88;4160634;28;20228;-70
2022/06/21 04:40:53;;;;;;;4.90;2.30;;;;;;;18.06;50.11;99228.59;4161610;28;20360;-70
2022/06/21 04:43:11;;;;;;;3.00;2.63;;;;;;;17.75;49.98;99253.63;4146141;28;20323;-70
2022/06/21 04:45:21;;;;;;;3.33;2.47;;;;;;;18.01;50.52;99223.03;4142938;28;20713;-67
2022/06/21 04:47:48;;;;;;;2.97;2.10;;;;;;;18.11;50.29;99220.69;4153827;28;20270;-70
2022/06/21 04:49:57;;;;;;;2.77;2.40;;;;;;;18.17;49.65;99214.41;4147317;28;20237;-70
2022/06/21 04:52:08;;;;;;;2.83;2.50;;;;;;;17.85;50.79;99224.38;4148983;28;20724;-69
2022/06/21 04:54:25;;;;;;;4.53;2.37;;;;;;;17.63;50.82;99222.09;4149074;28;20291;-70
2022/06/21 04:56:38;;;;;;;7.57;2.70;;;;;;;18.50;49.35;99191.69;4142592;28;20217;-71
2022/06/21 04:58:40;;;;;;;2.87;2.23;;;;;;;18.30;49.46;99231.47;4144135;28;20622;-70
2022/06/21 05:00:42;;;;;;;3.60;2.70;;;;;;;18.49;49.36;99208.91;4144280;28;20259;-69
2022/06/21 05:02:46;;;;;;;4.70;2.30;;;;;;;18.13;50.12;99217.78;4142582;28;20757;-69
2022/06/21 05:04:52;;;;;;;2.70;2.47;;;;;;;18.45;49.63;99207.69;4143043;28;20237;-69
2022/06/21 05:06:57;;;;;;;3.00;2.13;;;;;;;18.19;49.86;99228.47;4144020;28;20297;-68
2022/06/21 05:09:00;;;;;;;3.37;2.30;;;;;;;18.47;49.62;99227.13;4142480;28;20237;-69
2022/06/21 05:11:03;;;;;;;2.60;2.20;;;;;;;18.46;49.53;99222.81;4148819;28;20488;-69
2022/06/21 05:13:14;;;;;;;3.00;2.20;;;;;;;18.47;49.52;99237.09;4145513;28;20295;-69
2022/06/21 05:15:26;;;;;;;2.53;2.00;;;;;;;18.68;49.11;99212.41;4143338;28;20283;-69
2022/06/21 05:17:29;;;;;;;2.90;2.03;;;;;;;18.62;49.15;99269.84;4143957;28;20236;-69
2022/06/21 05:19:35;;;;;;;2.27;1.90;;;;;;;18.85;49.02;99241.47;4143488;28;20710;-69
2022/06/21 05:21:44;;;;;;;3.23;2.00;;;;;;;18.58;49.05;99250.63;4143852;28;20295;-69
2022/06/21 05:23:47;;;;;;;4.70;2.30;;;;;;;18.80;48.85;99238.59;4138292;28;20292;-69
2022/06/21 05:25:50;;;;;;;2.40;1.93;;;;;;;19.45;47.47;99230.69;4142437;28;20249;-69
2022/06/21 05:28:18;;;;;;;3.87;2.20;;;;;;;19.01;48.12;99283.94;4135558;28;20719;-69
2022/06/21 05:30:37;;;;;;;3.87;2.00;;;;;;;19.49;47.25;99241.84;4133385;28;20233;-70
2022/06/21 05:33:01;;;;;;;6.20;2.20;;;;;;;19.70;47.36;99262.91;4142798;28;20253;-69
2022/06/21 05:35:11;;;;;;;3.57;2.10;;;;;;;19.80;47.09;99246.16;4137427;28;20214;-69
2022/06/21 05:37:31;;;;;;;6.33;2.20;;;;;;;19.71;46.82;99271.84;4143626;28;20836;-69
2022/06/21 05:39:41;;;;;;;3.80;2.27;;;;;;;19.34;47.35;99280.00;4143550;28;20773;-69
2022/06/21 05:41:45;;;;;;;3.57;2.13;;;;;;;19.84;46.44;99260.00;4142898;28;20248;-69
2022/06/21 05:43:50;;;;;;;4.80;1.97;;;;;;;19.76;46.86;99269.25;4143510;28;20812;-69
2022/06/21 05:46:02;;;;;;;3.00;2.50;;;;;;;18.69;48.69;99297.53;4141429;28;20314;-69
2022/06/21 05:48:12;;;;;;;11.13;2.53;;;;;;;19.04;47.83;99294.25;4144172;28;20235;-69
2022/06/21 05:50:19;;;;;;;3.80;2.00;;;;;;;19.39;47.82;99273.94;4147971;28;20298;-69
2022/06/21 05:52:26;;;;;;;2.40;1.80;;;;;;;19.32;47.79;99322.53;4155704;28;20229;-69
2022/06/21 05:54:36;;;;;;;1.87;1.70;;;;;;;20.12;46.64;99277.41;4159608;28;20236;-69
2022/06/21 05:56:39;;;;;;;4.00;2.20;;;;;;;19.69;47.38;99309.00;4157088;28;20240;-69
2022/06/21 05:59:07;;;;;;;4.30;2.47;;;;;;;19.47;47.13;99335.59;4134791;28;20657;-68
2022/06/21 06:01:25;;;;;;;4.07;2.23;;;;;;;19.89;46.66;99300.59;4143079;28;20236;-69
2022/06/21 06:04:06;;;;;;;2.80;2.20;;;;;;;19.33;47.26;99313.38;4142064;28;20512;-69
2022/06/21 06:06:15;;;;;;;5.17;1.93;;;;;;;20.29;45.95;99270.28;4138325;28;20232;-69
2022/06/21 06:08:22;;;;;;;3.17;2.00;;;;;;;19.90;46.54;99287.94;4142582;28;20720;-68
2022/06/21 06:10:25;;;;;;;3.30;2.20;;;;;;;19.77;46.20;99318.63;4142622;28;20232;-70
2022/06/21 06:12:34;;;;;;;3.77;1.80;;;;;;;20.10;46.14;99307.31;4142225;28;20233;-69
2022/06/21 06:15:22;;;;;;;2.03;1.83;;;;;;;19.52;47.30;99319.56;4150824;28;20244;-68
2022/06/21 06:17:26;;;;;;;2.67;2.00;;;;;;;20.37;46.00;99291.53;4140936;28;20229;-69
2022/06/21 06:19:34;;;;;;;3.93;2.40;;;;;;;19.39;47.68;99336.75;4141031;28;20926;-69
2022/06/21 06:22:09;;;;;;;3.10;2.17;;;;;;;19.50;46.82;99341.38;4125164;28;20272;-69
2022/06/21 06:24:15;;;;;;;3.70;1.80;;;;;;;20.94;45.32;99284.66;4138435;28;20749;-69
2022/06/21 06:26:21;;;;;;;4.03;2.13;;;;;;;20.39;45.83;99319.09;4141280;28;20228;-70
2022/06/21 06:28:39;;;;;;;4.00;2.10;;;;;;;20.96;45.31;99304.19;4141651;28;20310;-69
2022/06/21 06:30:55;;;;;;;2.90;2.10;;;;;;;20.86;45.09;99326.38;4142868;28;20617;-68
2022/06/21 06:33:16;;;;;;;3.80;1.80;;;;;;;20.80;45.43;99325.44;4142771;28;20953;-68
2022/06/21 06:35:23;;;;;;;3.03;2.20;;;;;;;20.96;45.07;99291.47;4141974;28;20229;-68
2022/06/21 06:37:52;;;;;;;2.50;1.80;;;;;;;20.83;44.77;99321.44;4141678;28;20263;-69
2022/06/21 06:39:54;;;;;;;4.13;2.00;;;;;;;20.28;45.77;99343.41;4142383;28;20295;-69
2022/06/21 06:42:15;;;;;;;2.63;2.00;;;;;;;20.92;46.19;99290.28;4140610;28;20232;-69
2022/06/21 06:44:21;;;;;;;4.73;2.03;;;;;;;20.94;46.62;99296.28;4138179;28;20760;-69
2022/06/21 06:46:30;;;;;;;2.83;2.37;;;;;;;21.34;45.69;99275.72;4140901;28;20304;-69
2022/06/21 06:48:40;;;;;;;2.70;1.97;;;;;;;21.10;45.68;99297.44;4134159;28;20265;-69
2022/06/21 06:50:51;;;;;;;3.50;2.03;;;;;;;21.17;46.04;99294.59;4144436;28;20241;-69
2022/06/21 06:53:09;;;;;;;3.83;1.90;;;;;;;21.22;46.15;99272.25;4157016;28;20232;-68
2022/06/21 06:55:20;;;;;;;3.77;2.03;;;;;;;20.74;45.95;99285.84;4158131;28;20305;-68
2022/06/21 06:57:48;;;;;;;3.53;2.10;;;;;;;20.99;46.46;99241.53;4147717;28;20265;-69
2022/06/21 06:59:50;;;;;;;5.47;2.20;;;;;;;20.24;47.10;99245.84;4142018;28;20653;-69
2022/06/21 07:02:04;;;;;;;3.77;2.07;;;;;;;21.01;46.01;99195.38;4143729;28;20233;-69
2022/06/21 07:04:11;;;;;;;4.67;2.30;;;;;;;20.38;47.23;99201.38;4158618;28;20266;-68
2022/06/21 07:06:31;;;;;;;3.33;2.20;;;;;;;20.19;47.75;99218.72;4155283;28;20242;-69
2022/06/21 07:08:42;;;;;;;5.47;2.80;;;;;;;20.66;46.57;99244.88;4142601;28;20288;-69
2022/06/21 07:10:47;;;;;;;4.30;2.13;;;;;;;20.70;47.11;99251.44;4134736;28;20233;-69
2022/06/21 07:12:51;;;;;;;4.37;2.30;;;;;;;20.59;47.56;99235.03;4140533;28;20659;-69
2022/06/21 07:14:55;;;;;;;4.50;2.00;;;;;;;20.98;47.04;99224.50;4140893;28;20241;-69
2022/06/21 07:17:18;;;;;;;3.67;2.10;;;;;;;20.82;47.80;99222.53;4141592;28;20233;-68
2022/06/21 07:19:20;;;;;;;3.20;2.20;;;;;;;20.65;47.70;99225.16;4141096;28;20237;-69
2022/06/21 07:21:23;;;;;;;5.00;2.70;;;;;;;20.56;47.80;99218.47;4142744;28;20280;-69
2022/06/21 07:23:27;;;;;;;4.13;2.40;;;;;;;21.49;45.92;99172.41;4141225;28;20698;-69
2022/06/21 07:25:31;;;;;;;6.63;2.17;;;;;;;20.90;46.51;99211.31;4140652;28;20304;-69
2022/06/21 07:27:36;;;;;;;3.27;2.33;;;;;;;20.15;48.52;99222.97;4141738;28;20291;-69
2022/06/21 07:29:48;;;;;;;3.00;1.93;;;;;;;20.65;47.92;99227.88;4141940;28;20233;-69
2022/06/21 07:31:55;;;;;;;3.47;2.27;;;;;;;20.27;48.38;99247.28;4135137;28;20654;-69
2022/06/21 07:34:08;;;;;;;5.27;2.23;;;;;;;21.53;46.38;99228.47;4142027;28;20241;-69
2022/06/21 07:36:18;;;;;;;6.03;2.30;;;;;;;20.99;46.92;99261.28;4139238;28;20680;-69
2022/06/21 07:38:35;;;;;;;3.97;1.90;;;;;;;21.91;45.42;99261.31;4142075;28;20246;-69
2022/06/21 07:40:49;;;;;;;3.70;2.30;;;;;;;21.22;45.84;99267.66;4142457;28;20308;-69
2022/06/21 07:43:00;;;;;;;5.30;2.50;;;;;;;21.12;46.30;99276.41;4140693;28;20287;-69
2022/06/21 07:45:14;;;;;;;3.23;2.20;;;;;;;21.12;46.73;99279.13;4143187;28;20701;-69
2022/06/21 07:47:22;;;;;;;3.37;2.33;;;;;;;21.23;46.41;99273.91;4144789;28;20259;-68
2022/06/21 07:49:37;;;;;;;4.73;2.53;;;;;;;21.98;44.73;99231.38;4150618;28;20239;-69
2022/06/21 07:51:43;;;;;;;5.87;2.43;;;;;;;20.82;45.92;99290.09;4153968;28;20232;-69
2022/06/21 07:54:06;;;;;;;4.30;2.60;;;;;;;21.76;45.41;99245.66;4161172;28;20298;-69
2022/06/21 07:56:17;;;;;;;7.00;2.50;;;;;;;22.23;44.95;99220.09;4160324;28;20221;-68
2022/06/21 07:58:28;;;;;;;3.67;2.23;;;;;;;21.77;45.35;99246.50;4144305;28;20267;-68
2022/06/21 08:07:53;;;;;;;2.90;1.87;;;;;;;22.67;44.07;99222.88;4144612;28;20722;-68
2022/06/21 08:10:09;;;;;;;4.17;2.37;;;;;;;23.07;43.87;99232.59;4145596;28;20857;-69
2022/06/21 08:12:13;;;;;;;5.23;2.33;;;;;;;22.54;44.54;99236.81;4143953;28;20221;-67
2022/06/21 08:14:16;;;;;;;6.10;2.27;;;;;;;22.86;44.28;99222.56;4144053;28;20241;-67
2022/06/21 08:16:22;;;;;;;5.37;2.70;;;;;;;22.27;44.61;99235.63;4144124;28;20256;-68
2022/06/21 08:18:40;;;;;;;3.20;2.20;;;;;;;22.86;44.09;99236.13;4143667;28;20237;-68
2022/06/21 08:20:47;;;;;;;4.27;2.40;;;;;;;23.09;43.80;99224.22;4145333;28;20240;-68
2022/06/21 08:23:07;;;;;;;5.47;2.60;;;;;;;23.35;43.91;99220.69;4144227;28;20291;-69
2022/06/21 08:25:27;;;;;;;3.93;2.37;;;;;;;22.63;43.81;99259.69;4143127;28;20233;-68
2022/06/21 08:27:34;;;;;;;5.33;2.63;;;;;;;23.27;43.07;99259.13;4143765;28;20293;-68
2022/06/21 08:29:59;;;;;;;5.57;2.40;;;;;;;22.80;44.13;99262.34;4145716;28;20304;-69
2022/06/21 08:32:05;;;;;;;6.13;2.60;;;;;;;23.48;43.32;99234.91;4143708;28;20303;-68
2022/06/21 08:34:23;;;;;;;4.53;2.50;;;;;;;23.19;43.22;99256.88;4144300;28;20245;-68
2022/06/21 08:36:31;;;;;;;6.23;2.50;;;;;;;22.69;44.27;99245.13;4143409;28;20737;-69
2022/06/21 08:38:46;;;;;;;6.00;2.40;;;;;;;23.51;43.31;99239.81;4143606;28;20759;-68
2022/06/21 08:41:51;;;;;;;5.47;2.43;;;;;;;23.84;43.03;99221.66;4140043;28;20291;-69
2022/06/21 08:44:06;;;;;;;8.15;2.90;;;;;;;23.93;42.87;99199.19;4142479;28;20295;-69
2022/06/21 08:46:33;;;;;;;6.43;2.65;;;;;;;23.54;43.59;99201.31;4143158;28;20233;-68
2022/06/21 08:48:54;;;;;;;6.28;2.15;;;;;;;23.51;42.94;99227.06;4141884;28;20287;-68
2022/06/21 08:51:33;;;;;;;3.88;2.17;;;;;;;24.15;42.17;99219.19;4138273;28;20233;-68
2022/06/21 08:54:05;;;;;;;4.68;2.70;;;;;;;24.73;41.50;99200.19;4159955;28;20627;-69
2022/06/21 08:56:18;;;;;;;5.03;2.13;;;;;;;24.75;41.76;99217.03;4158464;28;20231;-68
2022/06/21 08:58:36;;;;;;;2.90;2.30;;;;;;;24.30;42.39;99217.38;4143794;28;20225;-68
2022/06/21 09:00:45;;;;;;;4.32;2.38;;;;;;;24.84;42.17;99188.31;4142829;28;20271;-69
2022/06/21 09:03:05;;;;;;;4.95;2.13;;;;;;;24.96;41.93;99190.78;4134783;28;20800;-69
2022/06/21 09:05:35;;;;;;;4.57;2.88;;;;;;;23.98;42.89;99230.19;4143501;28;20225;-69
2022/06/21 09:07:58;;;;;;;7.95;2.70;;;;;;;24.91;42.34;99201.63;4142000;28;20229;-69
2022/06/21 09:10:14;;;;;;;6.47;2.70;;;;;;;25.33;41.64;99198.72;4157886;28;20755;-69
2022/06/21 09:12:54;;;;;;;5.97;2.35;;;;;;;24.37;42.68;99238.06;4148490;28;20255;-68
2022/06/21 09:15:17;;;;;;;5.53;2.50;;;;;;;24.45;42.51;99224.00;4134546;28;20287;-68
2022/06/21 09:17:49;;;;;;;6.30;2.50;;;;;;;24.63;42.51;99218.09;4160327;28;20232;-68
2022/06/21 09:20:00;;;;;;;4.45;2.35;;;;;;;25.11;42.08;99219.91;4160010;28;20240;-68
2022/06/21 09:22:32;;;;;;;4.43;2.50;;;;;;;25.29;41.91;99207.69;4137397;28;20717;-68
2022/06/21 09:24:58;;;;;;;3.45;2.30;;;;;;;25.77;42.06;99203.66;4142379;28;20695;-69
2022/06/21 09:27:03;;;;;;;4.13;2.50;;;;;;;25.89;41.51;99199.84;4142380;28;20233;-68
2022/06/21 09:29:10;;;;;;;3.83;2.85;;;;;;;25.61;41.60;99202.03;4143953;28;20302;-69
2022/06/21 09:31:48;;;;;;;4.15;2.38;;;;;;;26.51;40.55;99214.19;4143907;28;20241;-69
2022/06/21 09:34:04;;;;;;;4.13;2.50;;;;;;;26.25;41.19;99218.84;4151614;28;20606;-68
2022/06/21 09:36:41;;;;;;;3.97;2.45;;;;;;;26.34;41.39;99203.59;4143147;28;20225;-69
2022/06/21 09:38:52;;;;;;;5.53;2.90;;;;;;;26.46;40.76;99204.06;4142751;28;20237;-68
2022/06/21 09:41:21;;;;;;;4.30;2.75;;;;;;;25.93;41.67;99222.69;4136302;28;20485;-69
2022/06/21 09:43:36;;;;;;;4.93;2.80;;;;;;;26.33;41.81;99193.75;4153800;28;20245;-69
2022/06/21 09:45:45;;;;;;;4.40;2.67;;;;;;;26.41;42.50;99214.19;4157780;28;20244;-69
2022/06/21 09:48:04;;;;;;;5.68;2.42;;;;;;;26.75;41.79;99191.72;4155037;28;20248;-69
2022/06/21 09:50:42;;;;;;;8.43;2.55;;;;;;;26.51;41.65;99206.00;4151721;28;20224;-68
2022/06/21 09:52:48;;;;;;;7.43;2.50;;;;;;;26.75;40.94;99202.63;4141851;28;20291;-69
2022/06/21 09:55:04;;;;;;;6.78;2.47;;;;;;;26.64;41.72;99185.50;4142986;28;20303;-68
2022/06/21 09:57:24;;;;;;;5.30;2.70;;;;;;;26.46;41.20;99187.72;4144547;28;20744;-69
2022/06/21 09:59:31;;;;;;;7.07;2.80;;;;;;;25.81;42.05;99193.03;4150246;28;20233;-69
2022/06/21 10:01:49;;;;;;;5.78;2.83;;;;;;;26.78;41.81;99167.44;4159842;28;20236;-68
2022/06/21 10:03:50;;;;;;;3.58;2.55;;;;;;;27.32;41.14;99176.66;4159078;28;20249;-68
2022/06/21 10:06:05;;;;;;;5.72;2.90;;;;;;;27.71;40.68;99172.28;4157026;28;20316;-68
2022/06/21 10:08:40;;;;;;;6.15;2.38;;;;;;;27.57;40.94;99183.03;4138583;28;20291;-68
2022/06/21 10:11:02;;;;;;;8.23;2.75;;;;;;;27.60;40.98;99202.38;4142106;28;20244;-68
2022/06/21 10:13:22;;;;;;;4.47;2.40;;;;;;;27.59;40.49;99184.34;4142652;28;20225;-69
2022/06/21 10:16:02;;;;;;;4.15;2.28;;;;;;;26.97;41.99;99191.34;4142244;28;20233;-69
2022/06/21 10:18:41;;;;;;;3.65;2.58;;;;;;;27.65;40.48;99167.94;4142157;28;20232;-68
2022/06/21 10:20:56;;;;;;;4.22;2.60;;;;;;;27.70;40.40;99181.56;4142943;28;20609;-69
2022/06/21 10:23:07;;;;;;;7.18;2.70;;;;;;;26.48;41.70;99180.06;4141499;28;20239;-69
2022/06/21 10:25:20;;;;;;;6.38;2.75;;;;;;;27.58;39.87;99169.09;4141687;28;20233;-68
2022/06/21 10:27:52;;;;;;;6.03;2.70;;;;;;;27.38;40.98;99177.44;4142877;28;20256;-69
2022/06/21 10:30:06;;;;;;;4.40;2.88;;;;;;;27.65;40.41;99148.84;4142949;28;20241;-69
2022/06/21 10:32:23;;;;;;;4.25;2.63;;;;;;;27.85;39.93;99159.56;4142988;28;20229;-69